Time;durP1;ratioP1;P1;durP2;ratioP2;P2;SDS_P1;SDS_P2;PMS_P1;PMS_P2;Temp;Humidity;BMP_temperature;BMP_pressure;BME280_temperature;BME280_humidity;BME280_pressure;Samples;Min_cycle;Max_cycle;Signal;HPM_P1;HPM_P2
2021/08/11 00:00:39;;;;;;;4.80;4.47;;;;;;;23.82;100.00;96478.56;5012606;28;20199;-81
2021/08/11 00:03:06;;;;;;;5.43;4.93;;;;;;;23.86;100.00;96477.84;5012611;28;20322;-81
2021/08/11 00:05:33;;;;;;;5.03;4.63;;;;;;;23.98;100.00;96475.16;5012799;28;20262;-81
2021/08/11 00:08:00;;;;;;;7.33;5.00;;;;;;;23.86;100.00;96483.22;5012534;28;20200;-80
2021/08/11 00:10:27;;;;;;;6.43;4.80;;;;;;;23.93;100.00;96472.34;5012528;28;20591;-81
2021/08/11 00:12:56;;;;;;;5.73;5.23;;;;;;;23.84;100.00;96479.16;5012455;28;20207;-80
2021/08/11 00:15:23;;;;;;;5.73;4.80;;;;;;;23.80;100.00;96473.47;5012599;28;20210;-81
2021/08/11 00:17:51;;;;;;;6.30;5.70;;;;;;;23.68;100.00;96481.50;5012695;28;20199;-80
2021/08/11 00:20:18;;;;;;;6.03;5.43;;;;;;;23.60;100.00;96473.81;5012323;28;20651;-81
2021/08/11 00:22:45;;;;;;;7.37;5.80;;;;;;;23.62;100.00;96470.88;5012204;28;20283;-81
2021/08/11 00:25:12;;;;;;;6.83;5.83;;;;;;;23.36;100.00;96474.88;5012493;28;20657;-81
2021/08/11 00:27:40;;;;;;;5.63;5.13;;;;;;;23.00;100.00;96468.72;5012535;28;20261;-81
2021/08/11 00:30:09;;;;;;;5.30;4.90;;;;;;;23.13;100.00;96471.16;5012157;28;20199;-81
2021/08/11 00:32:37;;;;;;;6.57;5.13;;;;;;;23.24;100.00;96472.19;5012174;28;20238;-81
2021/08/11 00:35:05;;;;;;;7.87;5.20;;;;;;;23.17;100.00;96475.03;5012614;28;20282;-81
2021/08/11 00:37:32;;;;;;;5.43;5.03;;;;;;;23.02;100.00;96472.78;5012096;28;20246;-81
2021/08/11 00:39:59;;;;;;;4.97;4.57;;;;;;;22.86;100.00;96468.09;5012080;28;20698;-81
2021/08/11 00:42:27;;;;;;;5.20;4.90;;;;;;;23.00;100.00;96466.03;5012324;28;20199;-81
2021/08/11 00:44:54;;;;;;;5.63;5.13;;;;;;;22.99;100.00;96465.19;5012177;28;20219;-81
2021/08/11 00:47:27;;;;;;;5.37;4.90;;;;;;;23.19;100.00;96467.53;5011982;28;20242;-81
2021/08/11 00:49:54;;;;;;;5.57;5.00;;;;;;;23.44;100.00;96467.28;5012041;28;20246;-81
2021/08/11 00:52:22;;;;;;;5.50;5.00;;;;;;;23.60;100.00;96464.94;5011715;28;20326;-81
2021/08/11 00:54:49;;;;;;;5.97;5.20;;;;;;;23.47;100.00;96466.00;5012356;28;20349;-81
2021/08/11 00:57:19;;;;;;;5.67;5.17;;;;;;;23.47;100.00;96466.81;5011844;28;20239;-81
2021/08/11 00:59:48;;;;;;;5.90;5.43;;;;;;;23.51;100.00;96459.13;5011823;28;20199;-81
2021/08/11 01:02:18;;;;;;;5.70;5.30;;;;;;;23.49;100.00;96463.91;5012180;28;20203;-81
2021/08/11 01:04:48;;;;;;;5.93;5.43;;;;;;;23.36;100.00;96461.47;5016123;28;20237;-81
2021/08/11 01:07:16;;;;;;;5.80;5.27;;;;;;;23.35;100.00;96455.31;5015812;28;20250;-81
2021/08/11 01:09:44;;;;;;;6.00;5.40;;;;;;;23.44;100.00;96453.88;5015855;28;20661;-81
2021/08/11 01:12:13;;;;;;;5.13;4.70;;;;;;;23.46;100.00;96449.09;5015766;28;20970;-81
2021/08/11 01:14:42;;;;;;;5.60;5.10;;;;;;;23.37;100.00;96453.19;5016268;28;20206;-81
2021/08/11 01:17:10;;;;;;;6.93;5.80;;;;;;;23.46;100.00;96446.41;5015699;28;20238;-81
2021/08/11 01:19:38;;;;;;;6.60;6.10;;;;;;;23.45;100.00;96444.78;5015949;28;20203;-81
2021/08/11 01:22:11;;;;;;;5.93;4.93;;;;;;;23.30;100.00;96435.59;5015699;28;20195;-80
2021/08/11 01:24:45;;;;;;;9.70;6.03;;;;;;;23.21;100.00;96443.19;5015761;28;20208;-81
2021/08/11 01:27:46;;;;;;;10.40;5.67;;;;;;;23.19;100.00;96435.38;5015341;28;20182;-81
2021/08/11 01:30:19;;;;;;;5.60;5.20;;;;;;;23.12;100.00;96432.00;5016052;28;20620;-81
2021/08/11 01:33:03;;;;;;;7.47;5.67;;;;;;;23.15;100.00;96431.53;5015415;28;20188;-81
2021/08/11 01:35:37;;;;;;;6.77;5.20;;;;;;;23.07;100.00;96431.03;5015657;28;20226;-81
2021/08/11 01:38:08;;;;;;;5.50;5.00;;;;;;;22.91;100.00;96421.81;5015149;28;20278;-81
2021/08/11 01:40:38;;;;;;;5.53;5.13;;;;;;;23.02;100.00;96413.00;5015575;28;20192;-80
2021/08/11 01:43:08;;;;;;;7.13;6.20;;;;;;;22.99;100.00;96411.59;5015143;28;20295;-81
2021/08/11 01:45:39;;;;;;;6.93;5.37;;;;;;;22.97;100.00;96415.56;5015481;28;20683;-80
2021/08/11 01:48:10;;;;;;;5.60;5.10;;;;;;;23.04;100.00;96418.13;5015133;28;20242;-80
2021/08/11 01:50:40;;;;;;;5.73;5.30;;;;;;;22.83;100.00;96412.28;5015340;28;20668;-81
2021/08/11 01:53:11;;;;;;;6.10;5.50;;;;;;;22.85;100.00;96412.84;5014986;28;20231;-81
2021/08/11 01:55:39;;;;;;;6.90;5.10;;;;;;;22.76;100.00;96406.22;5015026;28;20197;-80
2021/08/11 01:58:07;;;;;;;6.50;5.13;;;;;;;22.77;100.00;96405.97;5014937;28;20241;-81
2021/08/11 02:00:35;;;;;;;5.70;5.20;;;;;;;22.76;100.00;96408.91;5014790;28;20245;-81
2021/08/11 02:03:04;;;;;;;6.03;5.47;;;;;;;22.74;100.00;96411.78;5014992;28;20223;-80
2021/08/11 02:05:32;;;;;;;6.23;5.60;;;;;;;22.57;100.00;96393.94;5015218;28;20361;-80
2021/08/11 02:08:04;;;;;;;6.17;5.03;;;;;;;22.48;100.00;96396.13;5014779;28;20261;-81
2021/08/11 02:10:32;;;;;;;6.27;5.77;;;;;;;22.49;100.00;96393.25;5015074;28;20192;-80
2021/08/11 02:13:01;;;;;;;5.80;5.30;;;;;;;22.68;100.00;96398.50;5014398;28;20200;-81
2021/08/11 02:15:29;;;;;;;6.77;5.70;;;;;;;22.71;100.00;96392.69;5014916;28;20196;-81
2021/08/11 02:17:58;;;;;;;6.47;5.47;;;;;;;22.55;100.00;96400.38;5014302;28;20286;-80
2021/08/11 02:20:25;;;;;;;5.87;5.37;;;;;;;22.50;100.00;96396.75;5014759;28;20290;-81
2021/08/11 02:22:52;;;;;;;6.10;5.70;;;;;;;22.36;100.00;96398.00;5014516;28;20290;-81
2021/08/11 02:25:22;;;;;;;6.10;5.60;;;;;;;22.22;100.00;96394.69;5014931;28;20258;-81
2021/08/11 02:27:54;;;;;;;5.33;4.93;;;;;;;22.28;100.00;96401.81;5014425;28;20278;-80
2021/08/11 02:30:25;;;;;;;5.47;5.07;;;;;;;22.18;100.00;96402.38;5014504;28;20227;-81
2021/08/11 02:32:59;;;;;;;6.07;5.37;;;;;;;22.35;100.00;96397.19;5014428;28;20660;-80
2021/08/11 02:35:32;;;;;;;6.70;5.70;;;;;;;22.23;100.00;96390.97;5014498;28;20190;-80
2021/08/11 02:38:04;;;;;;;5.30;4.80;;;;;;;22.13;100.00;96393.34;5014376;28;20266;-81
2021/08/11 02:40:38;;;;;;;5.63;5.00;;;;;;;22.05;100.00;96387.28;5014394;28;20667;-80
2021/08/11 02:43:10;;;;;;;5.80;5.30;;;;;;;22.21;100.00;96393.09;5014476;28;20223;-80
2021/08/11 02:45:40;;;;;;;5.80;5.20;;;;;;;22.07;100.00;96385.22;5014608;28;20291;-80
2021/08/11 02:48:10;;;;;;;5.57;5.07;;;;;;;22.09;100.00;96387.66;5013934;28;20196;-80
2021/08/11 02:50:39;;;;;;;5.67;5.20;;;;;;;22.27;100.00;96394.81;5014802;28;20223;-80
2021/08/11 02:53:08;;;;;;;7.13;5.87;;;;;;;22.14;100.00;96389.66;5013538;28;20274;-80
2021/08/11 02:55:39;;;;;;;5.70;5.20;;;;;;;22.11;100.00;96382.09;5014424;28;20230;-81
2021/08/11 02:58:08;;;;;;;6.07;5.20;;;;;;;21.82;100.00;96377.34;5013773;28;20184;-80
2021/08/11 03:00:36;;;;;;;7.43;6.10;;;;;;;21.88;100.00;96378.25;5014026;28;20209;-81
2021/08/11 03:03:04;;;;;;;9.33;6.30;;;;;;;21.92;100.00;96381.31;5013699;28;20290;-80
2021/08/11 03:05:33;;;;;;;7.10;6.00;;;;;;;21.92;100.00;96376.75;5013807;28;20219;-80
2021/08/11 03:08:01;;;;;;;6.40;6.00;;;;;;;21.88;100.00;96386.28;5013670;28;20203;-80
2021/08/11 03:10:29;;;;;;;6.37;5.67;;;;;;;21.81;100.00;96382.91;5013607;28;20199;-80
2021/08/11 03:12:59;;;;;;;8.47;6.13;;;;;;;21.88;100.00;96380.13;5013874;28;20338;-81
2021/08/11 03:15:28;;;;;;;6.70;6.20;;;;;;;21.66;100.00;96379.81;5013740;28;20672;-80
2021/08/11 03:17:55;;;;;;;6.47;5.97;;;;;;;21.71;100.00;96379.94;5013475;28;20218;-81
2021/08/11 03:20:23;;;;;;;6.80;6.30;;;;;;;21.73;100.00;96380.53;5013380;28;20261;-80
2021/08/11 03:22:50;;;;;;;7.43;5.97;;;;;;;21.74;100.00;96382.16;5011591;28;20200;-80
2021/08/11 03:25:17;;;;;;;6.93;5.90;;;;;;;21.62;100.00;96389.34;5032072;28;20226;-81
2021/08/11 03:27:45;;;;;;;6.93;6.27;;;;;;;21.58;100.00;96391.66;5032653;28;20830;-80
2021/08/11 03:30:17;;;;;;;6.50;6.00;;;;;;;21.54;100.00;96385.09;5033039;28;20229;-81
2021/08/11 03:32:44;;;;;;;7.07;5.57;;;;;;;21.55;100.00;96387.56;5032927;28;20263;-81
2021/08/11 03:35:11;;;;;;;6.87;6.33;;;;;;;21.58;100.00;96391.66;5033137;28;20694;-81
2021/08/11 03:37:39;;;;;;;10.43;6.83;;;;;;;21.56;100.00;96393.72;5032860;28;20683;-80
2021/08/11 03:40:07;;;;;;;7.10;6.50;;;;;;;21.44;100.00;96385.66;5033305;28;20237;-80
2021/08/11 03:42:34;;;;;;;7.33;6.63;;;;;;;21.46;100.00;96388.06;5032446;28;20211;-80
2021/08/11 03:45:01;;;;;;;6.83;6.33;;;;;;;21.41;100.00;96402.13;5033154;28;20329;-80
2021/08/11 03:47:30;;;;;;;6.50;6.00;;;;;;;21.23;100.00;96396.72;5032688;28;20199;-80
2021/08/11 03:49:57;;;;;;;8.80;6.40;;;;;;;21.28;100.00;96403.06;5033167;28;20203;-79
2021/08/11 03:52:24;;;;;;;10.33;6.40;;;;;;;21.33;100.00;96405.06;5032348;28;20289;-79
2021/08/11 03:54:52;;;;;;;6.90;6.20;;;;;;;21.47;100.00;96397.72;5032856;28;20282;-79
2021/08/11 03:57:19;;;;;;;19.00;7.83;;;;;;;21.64;100.00;96403.28;5032532;28;20203;-79
2021/08/11 03:59:46;;;;;;;10.43;8.13;;;;;;;21.70;100.00;96407.75;5032672;28;20289;-78
2021/08/11 04:02:13;;;;;;;12.00;7.27;;;;;;;21.71;100.00;96406.69;5032143;28;20779;-79
2021/08/11 04:04:42;;;;;;;8.97;6.80;;;;;;;21.77;100.00;96414.63;5032420;28;20253;-79
2021/08/11 04:07:09;;;;;;;15.43;7.10;;;;;;;21.75;100.00;96406.03;5032327;28;20810;-79
2021/08/11 04:09:36;;;;;;;7.83;6.97;;;;;;;21.53;100.00;96405.66;5032500;28;20252;-79
2021/08/11 04:12:04;;;;;;;11.33;9.00;;;;;;;21.59;100.00;96410.13;5031941;28;20260;-79
2021/08/11 04:14:31;;;;;;;15.43;12.13;;;;;;;21.54;100.00;96404.63;5032641;28;20191;-79
2021/08/11 04:16:59;;;;;;;16.70;11.97;;;;;;;21.61;100.00;96401.88;5032174;28;20679;-79
2021/08/11 04:19:26;;;;;;;16.30;10.53;;;;;;;21.59;100.00;96410.13;5032430;28;20277;-79
2021/08/11 04:21:55;;;;;;;13.47;11.17;;;;;;;21.59;100.00;96410.13;5031821;28;20234;-79
2021/08/11 04:24:23;;;;;;;13.97;10.93;;;;;;;21.72;100.00;96406.47;5032306;28;20209;-79
2021/08/11 04:26:51;;;;;;;16.33;10.17;;;;;;;21.75;100.00;96411.38;5032361;28;20264;-79
2021/08/11 04:29:18;;;;;;;12.03;9.77;;;;;;;21.70;100.00;96418.44;5032121;28;20297;-78
2021/08/11 04:31:45;;;;;;;10.97;8.03;;;;;;;21.51;100.00;96412.28;5031748;28;20198;-79
2021/08/11 04:34:12;;;;;;;19.40;10.77;;;;;;;21.58;100.00;96419.19;5032074;28;20203;-79
2021/08/11 04:36:40;;;;;;;20.53;9.67;;;;;;;21.77;100.00;96421.84;5031766;28;20198;-79
2021/08/11 04:39:08;;;;;;;8.90;7.63;;;;;;;21.76;100.00;96425.56;5031712;28;20668;-79
2021/08/11 04:41:35;;;;;;;9.47;8.57;;;;;;;21.60;100.00;96427.81;5031865;28;20297;-79
2021/08/11 04:44:03;;;;;;;9.63;7.37;;;;;;;21.69;100.00;96424.84;5031757;28;20209;-79
2021/08/11 04:46:30;;;;;;;7.93;7.23;;;;;;;21.71;100.00;96428.09;5032187;28;20195;-79
2021/08/11 04:48:57;;;;;;;9.37;7.57;;;;;;;21.77;100.00;96428.00;5031503;28;20199;-79
2021/08/11 04:51:25;;;;;;;9.60;7.83;;;;;;;21.86;100.00;96433.88;5031981;28;20233;-79
2021/08/11 04:53:52;;;;;;;10.33;7.37;;;;;;;21.81;100.00;96439.06;5031724;28;20191;-79
2021/08/11 04:56:21;;;;;;;8.40;7.10;;;;;;;22.00;100.00;96438.00;5031631;28;20695;-79
2021/08/11 04:58:48;;;;;;;8.07;7.37;;;;;;;22.18;100.00;96439.03;5031608;28;20208;-79
2021/08/11 05:01:16;;;;;;;8.30;6.97;;;;;;;22.20;100.00;96439.63;5031766;28;20233;-79
2021/08/11 05:03:43;;;;;;;8.03;7.23;;;;;;;22.15;100.00;96439.50;5031627;28;20710;-79
2021/08/11 05:06:11;;;;;;;7.57;6.87;;;;;;;22.23;100.00;96434.63;5031396;28;20222;-79
2021/08/11 05:08:39;;;;;;;10.27;7.00;;;;;;;22.08;100.00;96437.69;5031543;28;20301;-79
2021/08/11 05:11:06;;;;;;;8.80;7.27;;;;;;;22.09;100.00;96439.31;5031727;28;20205;-79
2021/08/11 05:13:35;;;;;;;7.60;6.97;;;;;;;22.03;100.00;96434.03;5031426;28;20285;-79
2021/08/11 05:16:02;;;;;;;8.67;7.93;;;;;;;22.11;100.00;96427.59;5031670;28;20201;-79
2021/08/11 05:18:30;;;;;;;8.20;7.43;;;;;;;22.24;100.00;96438.13;5031482;28;20203;-79
2021/08/11 05:20:57;;;;;;;9.97;7.60;;;;;;;22.46;100.00;96441.09;5031623;28;20229;-80
2021/08/11 05:23:24;;;;;;;13.97;9.10;;;;;;;22.62;100.00;96434.25;5031409;28;20648;-79
2021/08/11 05:25:51;;;;;;;8.87;7.97;;;;;;;22.63;100.00;96446.63;5031285;28;20236;-79
2021/08/11 05:28:19;;;;;;;8.03;7.20;;;;;;;22.79;100.00;96436.03;5031651;28;20648;-79
2021/08/11 05:30:47;;;;;;;7.17;6.47;;;;;;;22.93;100.00;96438.50;5031522;28;20207;-80
2021/08/11 05:33:15;;;;;;;12.03;7.40;;;;;;;23.08;100.00;96438.88;5031497;28;20227;-79
2021/08/11 05:35:42;;;;;;;8.00;7.20;;;;;;;23.11;100.00;96442.97;5031893;28;20226;-79
2021/08/11 05:38:09;;;;;;;13.13;8.20;;;;;;;23.15;100.00;96438.75;5030975;28;20256;-79
2021/08/11 05:40:36;;;;;;;9.67;7.37;;;;;;;23.32;100.00;96450.41;5031477;28;20305;-79
2021/08/11 05:43:03;;;;;;;9.63;7.60;;;;;;;23.50;100.00;96452.94;5031197;28;20289;-79
2021/08/11 05:45:31;;;;;;;9.17;8.17;;;;;;;23.65;100.00;96452.44;5031341;28;20227;-81
2021/08/11 05:47:59;;;;;;;10.47;8.23;;;;;;;23.80;100.00;96449.31;5030964;28;20289;-79
2021/08/11 05:50:27;;;;;;;21.23;8.73;;;;;;;23.91;100.00;96443.06;5035064;28;20655;-79
2021/08/11 05:52:54;;;;;;;15.90;8.27;;;;;;;24.09;100.00;96452.00;5034753;28;20763;-79
2021/08/11 05:55:22;;;;;;;9.23;7.40;;;;;;;24.29;100.00;96443.50;5035009;28;20285;-80
2021/08/11 05:57:49;;;;;;;12.97;7.90;;;;;;;24.48;100.00;96454.88;5034834;28;20277;-79
2021/08/11 06:00:17;;;;;;;13.50;7.23;;;;;;;24.58;100.00;96461.25;5034989;28;20257;-79
2021/08/11 06:02:44;;;;;;;13.90;8.10;;;;;;;24.74;100.00;96472.28;5034685;28;20238;-79
2021/08/11 06:05:13;;;;;;;13.40;12.20;;;;;;;24.91;100.00;96459.66;5034784;28;20223;-79
2021/08/11 06:07:41;;;;;;;12.83;8.93;;;;;;;24.98;100.00;96470.25;5034405;28;20672;-79
2021/08/11 06:10:09;;;;;;;13.70;7.23;;;;;;;25.19;100.00;96466.03;5034753;28;20203;-80
2021/08/11 06:12:36;;;;;;;7.47;6.77;;;;;;;25.36;100.00;96470.31;5034567;28;20205;-79
2021/08/11 06:15:04;;;;;;;8.83;7.03;;;;;;;25.60;100.00;96470.91;5034649;28;20230;-80
2021/08/11 06:17:31;;;;;;;9.60;6.63;;;;;;;25.77;100.00;96480.78;5034455;28;20738;-79
2021/08/11 06:19:59;;;;;;;8.43;6.07;;;;;;;25.92;100.00;96481.03;5034368;28;20202;-79
2021/08/11 06:22:27;;;;;;;6.90;6.37;;;;;;;26.12;100.00;96487.69;5034347;28;20289;-80
2021/08/11 06:24:55;;;;;;;8.80;6.03;;;;;;;26.20;100.00;96490.78;5034728;28;20222;-79
2021/08/11 06:27:22;;;;;;;7.30;6.43;;;;;;;26.42;100.00;96492.63;5034024;28;20239;-80
2021/08/11 06:29:49;;;;;;;8.23;6.57;;;;;;;26.61;100.00;96491.25;5034722;28;20594;-80
2021/08/11 06:32:16;;;;;;;6.20;5.70;;;;;;;26.80;100.00;96492.47;5034129;28;20310;-79
2021/08/11 06:34:43;;;;;;;6.97;6.32;;;;;;;26.86;100.00;96487.97;5034659;28;20199;-80
2021/08/11 06:37:11;;;;;;;6.47;5.95;;;;;;;27.15;100.00;96485.78;5034085;28;20612;-80
2021/08/11 06:39:39;;;;;;;6.65;6.05;;;;;;;27.33;100.00;96491.84;5034348;28;20224;-80
2021/08/11 06:42:07;;;;;;;8.52;6.47;;;;;;;27.64;100.00;96493.69;5033988;28;20210;-80
2021/08/11 06:44:34;;;;;;;7.15;6.53;;;;;;;27.71;100.00;96494.25;5034459;28;20642;-80
2021/08/11 06:47:01;;;;;;;7.90;7.13;;;;;;;27.84;100.00;96501.06;5033793;28;20265;-80
2021/08/11 06:49:28;;;;;;;5.65;5.20;;;;;;;28.08;100.00;96498.75;5033819;28;20293;-80
2021/08/11 06:51:56;;;;;;;5.72;5.07;;;;;;;28.11;100.00;96492.81;5033794;28;20253;-80
2021/08/11 06:54:23;;;;;;;8.45;6.30;;;;;;;28.27;100.00;96492.88;5033936;28;20242;-80
2021/08/11 06:56:53;;;;;;;6.25;5.75;;;;;;;28.44;100.00;96482.69;5033966;28;20227;-80
2021/08/11 06:59:20;;;;;;;5.95;5.20;;;;;;;28.83;100.00;96488.41;5033602;28;20209;-80
2021/08/11 07:01:47;;;;;;;6.32;5.80;;;;;;;29.05;100.00;96490.88;5032625;28;20636;-80
2021/08/11 07:04:14;;;;;;;7.30;5.70;;;;;;;29.29;100.00;96487.63;5034082;28;20195;-80
2021/08/11 07:06:42;;;;;;;5.57;5.13;;;;;;;29.11;100.00;96495.22;5033476;28;20317;-80
2021/08/11 07:09:09;;;;;;;7.47;5.97;;;;;;;29.45;100.00;96494.66;5033654;28;20230;-80
2021/08/11 07:11:36;;;;;;;6.25;5.75;;;;;;;29.45;100.00;96499.25;5033633;28;20199;-80
2021/08/11 07:14:05;;;;;;;5.38;4.88;;;;;;;29.46;100.00;96501.66;5033781;28;20195;-80
2021/08/11 07:16:34;;;;;;;5.20;4.80;;;;;;;29.89;100.00;96499.41;5033822;28;20274;-80
2021/08/11 07:19:02;;;;;;;5.43;4.95;;;;;;;30.17;100.00;96505.28;5033098;28;20203;-80
2021/08/11 07:21:29;;;;;;;6.22;5.50;;;;;;;30.38;100.00;96490.59;5033671;28;20230;-80
2021/08/11 07:23:56;;;;;;;5.50;5.00;;;;;;;30.53;100.00;96498.63;5033279;28;20636;-81
2021/08/11 07:26:23;;;;;;;7.35;5.18;;;;;;;30.72;100.00;96500.66;5033265;28;20313;-80
2021/08/11 07:28:51;;;;;;;5.50;4.93;;;;;;;30.60;100.00;96500.22;5033257;28;20234;-80
2021/08/11 07:31:19;;;;;;;5.43;4.93;;;;;;;30.63;100.00;96491.50;5033141;28;20289;-80
2021/08/11 07:33:47;;;;;;;6.35;5.30;;;;;;;31.06;100.00;96489.03;5032971;28;20289;-80
2021/08/11 07:36:14;;;;;;;5.38;4.80;;;;;;;31.23;100.00;96494.88;5033113;28;20206;-80
2021/08/11 07:38:41;;;;;;;5.65;4.70;;;;;;;31.18;100.00;96492.22;5032963;28;20257;-80
2021/08/11 07:41:09;;;;;;;5.20;4.75;;;;;;;31.30;100.00;96498.06;5032812;28;20256;-81
2021/08/11 07:43:36;;;;;;;5.38;4.93;;;;;;;31.02;100.00;96486.91;5032843;28;20233;-80
2021/08/11 07:46:03;;;;;;;5.70;4.80;;;;;;;30.70;100.00;96487.38;5033113;28;20288;-80
2021/08/11 07:48:32;;;;;;;5.47;5.07;;;;;;;30.95;100.00;96491.84;5032752;28;20194;-80
2021/08/11 07:50:59;;;;;;;6.03;4.93;;;;;;;30.95;100.00;96478.28;5032886;28;20230;-80
2021/08/11 07:53:27;;;;;;;7.03;5.13;;;;;;;31.02;100.00;96483.38;5032305;28;20241;-80
2021/08/11 07:55:54;;;;;;;8.90;5.90;;;;;;;31.19;100.00;96491.13;5032738;28;20190;-80
2021/08/11 07:58:24;;;;;;;5.57;5.07;;;;;;;31.52;100.00;96491.38;5032921;28;20237;-80
2021/08/11 08:00:51;;;;;;;5.28;4.82;;;;;;;31.65;100.00;96491.50;5032639;28;20206;-80
2021/08/11 08:03:18;;;;;;;6.78;4.80;;;;;;;31.67;100.00;96492.03;5032448;28;20202;-80
2021/08/11 08:05:47;;;;;;;5.40;4.85;;;;;;;31.95;100.00;96487.66;5032590;28;20317;-81
2021/08/11 08:08:14;;;;;;;7.07;4.93;;;;;;;32.45;100.00;96481.88;5032385;28;20202;-81
2021/08/11 08:10:41;;;;;;;6.38;5.00;;;;;;;32.64;100.00;96476.44;5032463;28;20671;-80
2021/08/11 08:13:09;;;;;;;5.70;5.20;;;;;;;32.42;100.00;96477.84;5032048;28;20578;-80
2021/08/11 08:15:36;;;;;;;6.40;5.70;;;;;;;31.95;100.00;96482.22;5032407;28;20195;-80
2021/08/11 08:18:04;;;;;;;8.70;5.85;;;;;;;31.91;100.00;96464.88;5032219;28;20285;-81
2021/08/11 08:20:34;;;;;;;5.22;4.75;;;;;;;31.95;100.00;96471.34;5031747;28;20730;-80
2021/08/11 08:23:03;;;;;;;5.43;4.93;;;;;;;32.33;100.00;96478.75;5032124;28;20236;-80
2021/08/11 08:25:30;;;;;;;6.20;5.60;;;;;;;32.83;100.00;96469.06;5032083;28;20265;-80
2021/08/11 08:27:57;;;;;;;5.38;4.90;;;;;;;33.06;100.00;96469.28;5032060;28;20633;-81
2021/08/11 08:30:25;;;;;;;6.15;5.65;;;;;;;32.65;100.00;96469.88;5032204;28;20750;-80
2021/08/11 08:32:52;;;;;;;7.03;5.47;;;;;;;32.87;100.00;96470.09;5031695;28;20195;-81
2021/08/11 08:35:19;;;;;;;5.53;4.82;;;;;;;32.64;100.00;96474.53;5032300;28;20289;-81
2021/08/11 08:37:46;;;;;;;5.38;4.97;;;;;;;33.01;100.00;96469.34;5031829;28;20203;-81
2021/08/11 08:40:15;;;;;;;5.38;4.97;;;;;;;32.83;100.00;96465.53;5032095;28;20293;-81
2021/08/11 08:42:44;;;;;;;7.43;4.68;;;;;;;32.54;100.00;96458.34;5031558;28;20198;-81
2021/08/11 08:45:14;;;;;;;7.65;5.30;;;;;;;32.75;100.00;96466.22;5032287;28;20734;-81
2021/08/11 08:47:43;;;;;;;7.82;5.30;;;;;;;33.27;100.00;96461.56;5031850;28;20684;-81
2021/08/11 08:50:11;;;;;;;4.93;4.47;;;;;;;32.62;100.00;96454.16;5031971;28;20288;-80
2021/08/11 08:52:39;;;;;;;4.97;4.57;;;;;;;32.93;100.00;96451.75;5031362;28;20326;-81
2021/08/11 08:55:08;;;;;;;5.72;5.22;;;;;;;32.85;100.00;96458.69;5031866;28;20253;-80
2021/08/11 08:57:37;;;;;;;7.82;5.00;;;;;;;33.05;100.00;96454.88;5031693;28;20210;-81
2021/08/11 09:00:06;;;;;;;5.72;4.78;;;;;;;33.33;100.00;96463.09;5031889;28;20628;-81
2021/08/11 09:02:38;;;;;;;8.98;5.60;;;;;;;32.95;100.00;96457.75;5031638;28;20580;-81
2021/08/11 09:05:06;;;;;;;5.93;4.80;;;;;;;32.81;100.00;96452.22;5031875;28;20739;-81
2021/08/11 09:07:33;;;;;;;6.18;4.63;;;;;;;33.24;100.00;96449.34;5031813;28;20602;-81
2021/08/11 09:10:13;;;;;;;8.15;5.22;;;;;;;33.06;100.00;96455.66;5031520;28;20289;-80
2021/08/11 09:12:46;;;;;;;5.95;5.25;;;;;;;32.75;100.00;96449.88;5031909;28;20260;-81
2021/08/11 09:15:27;;;;;;;4.93;4.45;;;;;;;32.95;100.00;96459.63;5031752;28;20225;-81
2021/08/11 09:17:55;;;;;;;5.35;4.85;;;;;;;33.49;100.00;96455.47;5031447;28;20638;-81
2021/08/11 09:20:24;;;;;;;4.55;4.13;;;;;;;32.93;100.00;96443.59;5031312;28;20253;-81
2021/08/11 09:22:54;;;;;;;4.68;4.32;;;;;;;32.89;100.00;96454.25;5031765;28;20268;-81
2021/08/11 09:25:22;;;;;;;5.78;3.97;;;;;;;32.76;100.00;96449.56;5035679;28;20297;-80
2021/08/11 09:27:50;;;;;;;5.10;3.85;;;;;;;32.56;100.00;96449.88;5035369;28;20225;-81
2021/08/11 09:30:19;;;;;;;4.72;4.32;;;;;;;32.78;100.00;96452.81;5035577;28;20249;-80
2021/08/11 09:32:58;;;;;;;4.47;4.07;;;;;;;33.13;100.00;96454.16;5035322;28;20195;-81
2021/08/11 09:35:28;;;;;;;4.57;4.18;;;;;;;33.48;100.00;96442.97;5035468;28;20225;-81
2021/08/11 09:37:56;;;;;;;4.93;4.53;;;;;;;33.38;100.00;96439.28;5035255;28;20214;-81
2021/08/11 09:40:26;;;;;;;6.80;4.10;;;;;;;33.71;100.00;96436.53;5035655;28;20237;-81
2021/08/11 09:42:57;;;;;;;8.35;4.43;;;;;;;33.50;100.00;96440.75;5035368;28;20282;-81
2021/08/11 09:45:24;;;;;;;4.90;4.40;;;;;;;33.37;100.00;96425.97;5035354;28;20617;-81
2021/08/11 09:47:56;;;;;;;4.60;4.13;;;;;;;33.39;100.00;96429.19;5035246;28;20277;-81
2021/08/11 09:50:40;;;;;;;5.55;4.00;;;;;;;33.32;100.00;96429.59;5035171;28;20202;-81
2021/08/11 09:53:08;;;;;;;4.40;4.03;;;;;;;33.58;100.00;96423.69;5034779;28;20317;-81
2021/08/11 09:56:04;;;;;;;4.68;4.28;;;;;;;33.97;100.00;96420.44;5035386;28;20588;-81
2021/08/11 09:58:37;;;;;;;4.20;3.85;;;;;;;33.99;100.00;96414.69;5034782;28;20190;-81
2021/08/11 10:01:05;;;;;;;4.53;4.13;;;;;;;34.21;100.00;96405.78;5035026;28;20191;-81
2021/08/11 10:03:33;;;;;;;5.20;4.72;;;;;;;34.23;100.00;96400.84;5034738;28;20215;-81
2021/08/11 10:06:01;;;;;;;4.45;4.05;;;;;;;34.36;100.00;96399.16;5034549;28;20209;-81
2021/08/11 10:08:30;;;;;;;8.20;4.72;;;;;;;33.71;100.00;96403.00;5034670;28;20448;-81
2021/08/11 10:10:57;;;;;;;5.57;4.35;;;;;;;33.81;100.00;96398.16;5034885;28;20234;-81
2021/08/11 10:13:25;;;;;;;4.65;4.18;;;;;;;33.72;100.00;96399.97;5034295;28;20249;-82
2021/08/11 10:15:55;;;;;;;4.70;4.30;;;;;;;34.22;100.00;96393.75;5034777;28;20199;-81
2021/08/11 10:18:26;;;;;;;6.20;4.43;;;;;;;34.37;100.00;96385.22;5034405;28;20199;-81
2021/08/11 10:20:58;;;;;;;4.70;3.85;;;;;;;34.44;100.00;96388.31;5034777;28;20199;-81
2021/08/11 10:23:25;;;;;;;5.13;3.75;;;;;;;34.28;100.00;96374.22;5034195;28;20652;-81
2021/08/11 10:25:53;;;;;;;5.10;4.70;;;;;;;34.48;100.00;96388.50;5034829;28;20599;-81
2021/08/11 10:28:22;;;;;;;4.85;4.13;;;;;;;34.46;100.00;96396.19;5034212;28;20245;-82
2021/08/11 10:30:51;;;;;;;5.18;3.95;;;;;;;34.59;100.00;96389.91;5034204;28;20692;-81
2021/08/11 10:33:21;;;;;;;4.50;4.07;;;;;;;34.70;100.00;96380.34;5034140;28;20234;-82
2021/08/11 10:35:50;;;;;;;4.78;4.38;;;;;;;34.30;100.00;96385.66;5033976;28;20203;-81
2021/08/11 10:38:18;;;;;;;4.25;3.85;;;;;;;34.08;100.00;96380.13;5034464;28;20222;-81
2021/08/11 10:40:53;;;;;;;5.18;4.65;;;;;;;34.32;100.00;96377.13;5034240;28;20198;-81
2021/08/11 10:43:21;;;;;;;4.38;4.07;;;;;;;34.61;100.00;96371.31;5033825;28;20202;-81
2021/08/11 10:45:59;;;;;;;6.93;4.65;;;;;;;34.75;100.00;96361.13;5034145;28;20412;-82
2021/08/11 10:48:28;;;;;;;3.90;3.60;;;;;;;34.77;100.00;96374.44;5033933;28;20198;-81
2021/08/11 10:50:56;;;;;;;5.00;4.53;;;;;;;34.86;100.00;96369.84;5034124;28;20293;-82
2021/08/11 10:53:23;;;;;;;4.80;4.47;;;;;;;34.12;100.00;96374.88;5033370;28;20234;-82
2021/08/11 10:55:52;;;;;;;6.75;4.35;;;;;;;33.24;100.00;96366.84;5034246;28;20194;-81
2021/08/11 10:58:41;;;;;;;4.70;4.20;;;;;;;33.14;100.00;96357.75;5034051;28;20198;-82
2021/08/11 11:01:31;;;;;;;6.25;4.53;;;;;;;32.81;100.00;96353.44;5034076;28;20214;-81
2021/08/11 11:04:00;;;;;;;4.57;4.18;;;;;;;33.74;100.00;96351.41;5029663;28;20671;-82
2021/08/11 11:06:53;;;;;;;4.47;4.07;;;;;;;34.22;100.00;96347.38;5034004;28;20230;-81
2021/08/11 11:09:21;;;;;;;5.25;4.40;;;;;;;34.69;100.00;96345.97;5034074;28;20677;-81
2021/08/11 11:11:49;;;;;;;4.57;4.18;;;;;;;34.83;100.00;96335.00;5033569;28;20289;-81
2021/08/11 11:14:51;;;;;;;6.47;4.38;;;;;;;34.95;100.00;96332.50;5033582;28;20198;-82
2021/08/11 11:17:18;;;;;;;7.30;5.15;;;;;;;34.56;100.00;96335.94;5033392;28;20229;-81
2021/08/11 11:20:28;;;;;;;4.72;4.43;;;;;;;34.57;100.00;96334.84;5033329;28;20230;-81
2021/08/11 11:23:02;;;;;;;5.88;4.72;;;;;;;34.89;100.00;96331.00;5033207;28;20198;-82
2021/08/11 11:25:59;;;;;;;6.32;4.18;;;;;;;35.09;100.00;96329.69;5033736;28;20191;-81
2021/08/11 11:28:59;;;;;;;10.07;5.25;;;;;;;34.77;100.00;96325.31;5013417;28;20234;-81
2021/08/11 11:31:47;;;;;;;4.80;4.35;;;;;;;34.75;100.00;96317.44;5033099;28;20198;-81
2021/08/11 11:34:32;;;;;;;5.47;4.30;;;;;;;34.99;100.00;96319.81;5033274;28;20210;-82